To NAV CANADA Home Page Login to a new session Search on AWWS site Feedback and Comments Disclaimer Vers la page française équivalente Tips FAQ What's new on the site To the Forecasts and Observations / NOTAM section To "File a Flight Plan" website Publications and other links Update of the User's profile FIC Telephone Numbers My Weather Data Folder Route Weather Data Regional Weather Data Local Weather Data To the Forecasts and Observations / NOTAM section
Request Generated 01/21/2017 at 02:03:57 UTC . Weather information available at that time is displayed.

METAR/TAF

CLYDE RIVER/NU    (show WxCam)

METAR CYCY 210200Z AUTO 31020KT 8SM CLR M22/M26 A2993 RMK SLP142=
SPECI CYCY 210154Z AUTO 32021KT 9SM CLR M23/M26 A2993 RMK SLP142=
METAR CYCY 210100Z AUTO 30011KT 9SM CLR M24/M29 A2994 RMK SLP143=
METAR CYCY 210000Z AUTO 26011KT 9SM CLR M25/M30 A2994 RMK SLP144=

TAF CYCY 210038Z 2101/2113 26010KT P6SM SKC
BECMG 2105/2107 30018G28KT
FM210700 30018G28KT P6SM SKC TEMPO 2107/2113 5SM IC BR
RMK FCST BASED ON AUTO OBS. NXT FCST BY 210700Z=
Your time UTC time
Weather data provided by Environment Canada and NAV CANADA